Iowa Falls, IA

9:01 PM CDT on August 23, 2017 (GMT -0500)
Iowa Falls Municipal

Weather History for KIFA - September, 2013

Change the Weather History Date:

Wednesday, September 25, 2013

  Actual Average Record
Temperature  
Mean Temperature 61 °F -  
Max Temperature 76 °F 71 °F 89 °F (1956)
Min Temperature 47 °F 44 °F 31 °F (1975)
Degree Days  
Heating Degree Days 4    
Growing Degree Days 11 (Base 50)    
Moisture  
Dew Point 51 °F    
Average Humidity 74    
Maximum Humidity 94    
Minimum Humidity 43    
Precipitation  
Precipitation 0.00 in - - ()
Sea Level Pressure  
Sea Level Pressure 29.93 in    
Wind  
Wind Speed 4 mph (East)    
Max Wind Speed 13 mph    
Max Gust Speed 16 mph    
Visibility 9 miles    
Events      
Averages and records for this station are not official NWS values.
T = Trace of Precipitation, MM = Missing Value Source: NWS Daily Summary

Daily Weather History Graph

Daily Weather History Graph

Search for Another Location

Airport or City:

Trip Planner

Search our weather history database for the weather conditions in past years. The results will help you decide how hot, cold, wet, or windy it might be!

Date:

Astronomy

Sep. 25, 2013 Rise Set
Actual Time 7:03 AM CDT 7:04 PM CDT
Civil Twilight 6:35 AM CDT 7:32 PM CDT
Nautical Twilight 6:03 AM CDT 8:05 PM CDT
Astronomical Twilight 5:29 AM CDT 8:38 PM CDT
Moon 11:05 PM CDT (9/25) 1:16 PM CDT (9/25)
Length of Visible Light 12h 56m
Length of Day
12h 00m
Waning Gibbous, 64% of the Moon is Illuminated
Sep 25
Waning Gibbous
Sep 26
Last Quarter
Oct 4
New
Oct 11
First Quarter
Oct 18
Full

Hourly Weather History & Observations

Time (CDT) Temp. Dew Point Humidity Pressure Visibility Wind Dir Wind Speed Gust Speed Precip Events Conditions
12:15 AM 53.1 °F 49.3 °F 87% 29.94 in 10.0 mi Calm Calm - N/A   Clear
12:35 AM 53.2 °F 49.6 °F 88% 29.94 in 10.0 mi Calm Calm - N/A   Clear
12:55 AM 51.3 °F 48.2 °F 89% 29.94 in 10.0 mi Calm Calm - N/A   Clear
1:15 AM 52.3 °F 50.0 °F 92% 29.94 in 10.0 mi NNE 4.6 mph - N/A   Scattered Clouds
1:35 AM 52.7 °F 49.6 °F 89% 29.95 in 10.0 mi Calm Calm - N/A   Scattered Clouds
1:55 AM 53.4 °F 50.2 °F 89% 29.95 in 10.0 mi NE 3.5 mph - N/A   Mostly Cloudy
2:15 AM 52.9 °F 50.0 °F 90% 29.94 in 10.0 mi NE 3.5 mph - N/A   Mostly Cloudy
2:35 AM 52.7 °F 49.5 °F 89% 29.95 in 10.0 mi NE 4.6 mph - N/A   Scattered Clouds
2:55 AM 52.5 °F 49.8 °F 91% 29.95 in 10.0 mi NE 3.5 mph - N/A   Mostly Cloudy
3:15 AM 52.0 °F 49.5 °F 91% 29.95 in 10.0 mi NE 4.6 mph - N/A   Scattered Clouds
3:35 AM 51.8 °F 49.3 °F 91% 29.94 in 10.0 mi Calm Calm - N/A   Clear
3:55 AM 50.9 °F 48.2 °F 90% 29.94 in 10.0 mi NNE 5.8 mph - N/A   Clear
4:15 AM 50.5 °F 48.2 °F 92% 29.95 in 10.0 mi NNE 4.6 mph - N/A   Clear
4:35 AM 50.5 °F 48.4 °F 92% 29.95 in 10.0 mi NNE 4.6 mph - N/A   Clear
4:55 AM 50.4 °F 48.2 °F 92% 29.95 in 10.0 mi NNE 4.6 mph - N/A   Clear
5:15 AM 49.6 °F 47.5 °F 92% 29.95 in 7.0 mi NE 4.6 mph - N/A   Clear
5:35 AM 49.8 °F 47.7 °F 92% 29.95 in 7.0 mi NE 4.6 mph - N/A   Clear
5:55 AM 49.6 °F 47.5 °F 92% 29.95 in 7.0 mi ENE 3.5 mph - N/A   Clear
6:15 AM 48.6 °F 46.6 °F 93% 29.95 in 7.0 mi NE 3.5 mph - N/A   Clear
6:35 AM 48.4 °F 46.6 °F 93% 29.95 in 5.0 mi Calm Calm - N/A   Clear
6:55 AM 48.0 °F 46.2 °F 93% 29.96 in 5.0 mi Calm Calm - N/A   Clear
7:15 AM 47.7 °F 46.0 °F 94% 29.96 in 5.0 mi NE 4.6 mph - N/A   Clear
7:35 AM 48.2 °F 46.6 °F 94% 29.96 in 4.0 mi ENE 3.5 mph - N/A   Clear
7:55 AM 49.1 °F 47.5 °F 94% 29.97 in 4.0 mi ENE 3.5 mph - N/A   Clear
8:15 AM 50.5 °F 48.6 °F 93% 29.97 in 5.0 mi Calm Calm - N/A   Clear
8:35 AM 52.2 °F 49.5 °F 91% 29.97 in 5.0 mi ENE 5.8 mph - N/A   Clear
8:55 AM 54.1 °F 50.4 °F 87% 29.97 in 7.0 mi East 6.9 mph - N/A   Clear
9:15 AM 56.3 °F 51.1 °F 83% 29.97 in 7.0 mi East 5.8 mph - N/A   Clear
9:35 AM 58.5 °F 51.6 °F 78% 29.99 in 10.0 mi ESE 4.6 mph - N/A   Clear
9:55 AM 60.8 °F 52.0 °F 73% 29.97 in 10.0 mi East 6.9 mph - N/A   Clear
10:15 AM 62.4 °F 51.6 °F 68% 29.98 in 10.0 mi East 8.1 mph - N/A   Clear
10:35 AM 64.4 °F 52.0 °F 64% 29.99 in 10.0 mi ESE 5.8 mph - N/A   Clear
10:55 AM 65.7 °F 51.4 °F 60% 29.99 in 10.0 mi East 6.9 mph - N/A   Mostly Cloudy
11:15 AM 67.6 °F 51.3 °F 56% 29.99 in 10.0 mi East 9.2 mph - N/A   Mostly Cloudy
11:35 AM 68.5 °F 50.7 °F 53% 29.97 in 10.0 mi East 10.4 mph - N/A   Scattered Clouds
11:55 AM 70.5 °F 51.1 °F 50% 29.97 in 10.0 mi ESE 8.1 mph - N/A   Clear
12:15 PM 70.7 °F 50.7 °F 49% 29.97 in 10.0 mi East 11.5 mph - N/A   Clear
12:35 PM 71.2 °F 50.5 °F 48% 29.96 in 10.0 mi East 9.2 mph - N/A   Clear
1:15 PM 72.3 °F 50.4 °F 46% 29.94 in 10.0 mi SE 9.2 mph 16.1 mph N/A   Clear
1:35 PM 73.0 °F 50.7 °F 45% 29.94 in 10.0 mi East 6.9 mph - N/A   Clear
1:55 PM 73.6 °F 51.1 °F 45% 29.92 in 10.0 mi East 9.2 mph 16.1 mph N/A   Clear
2:15 PM 74.1 °F 51.3 °F 45% 29.92 in 10.0 mi SE 11.5 mph 16.1 mph N/A   Clear
2:35 PM 74.5 °F 51.4 °F 44% 29.91 in 10.0 mi ESE 9.2 mph 16.1 mph N/A   Clear
2:55 PM 74.7 °F 51.8 °F 45% 29.91 in 10.0 mi ESE 12.7 mph 16.1 mph N/A   Clear
3:15 PM 75.0 °F 52.0 °F 44% 29.90 in 10.0 mi SE 10.4 mph - N/A   Clear
3:55 PM 75.9 °F 52.2 °F 43% 29.89 in 10.0 mi SSE 8.1 mph - N/A   Clear
4:15 PM 75.6 °F 52.7 °F 45% 29.89 in 10.0 mi SE 9.2 mph - N/A   Clear
4:35 PM 75.6 °F 52.5 °F 45% 29.89 in 10.0 mi ESE 9.2 mph - N/A   Clear
4:55 PM 75.4 °F 52.5 °F 45% 29.89 in 10.0 mi SE 11.5 mph - N/A   Clear
5:15 PM 75.2 °F 52.2 °F 44% 29.89 in 10.0 mi SE 10.4 mph - N/A   Clear
5:35 PM 74.7 °F 51.8 °F 45% 29.89 in 10.0 mi ESE 6.9 mph - N/A   Clear
5:55 PM 73.9 °F 52.5 °F 47% 29.89 in 10.0 mi ESE 6.9 mph - N/A   Clear
6:15 PM 72.7 °F 53.4 °F 51% 29.88 in 10.0 mi ESE 5.8 mph - N/A   Clear
6:35 PM 70.7 °F 53.6 °F 55% 29.88 in 10.0 mi ESE 5.8 mph - N/A   Clear
6:55 PM 67.8 °F 53.8 °F 61% 29.88 in 10.0 mi ESE 4.6 mph - N/A   Clear
7:15 PM 65.1 °F 54.0 °F 67% 29.88 in 10.0 mi ESE 4.6 mph - N/A   Clear
7:35 PM 62.6 °F 54.1 °F 74% 29.88 in 10.0 mi ESE 5.8 mph - N/A   Clear
7:55 PM 61.5 °F 54.0 °F 76% 29.88 in 10.0 mi ESE 4.6 mph - N/A   Clear
8:15 PM 60.3 °F 53.6 °F 79% 29.88 in 10.0 mi ESE 4.6 mph - N/A   Clear
8:35 PM 59.5 °F 53.6 °F 81% 29.88 in 10.0 mi ESE 4.6 mph - N/A   Clear
8:55 PM 59.4 °F 53.4 °F 81% 29.88 in 10.0 mi ESE 5.8 mph - N/A   Clear
9:15 PM 59.4 °F 53.1 °F 80% 29.88 in 10.0 mi East 4.6 mph - N/A   Clear
9:35 PM 58.1 °F 52.9 °F 83% 29.89 in 10.0 mi ESE 3.5 mph - N/A   Clear
9:55 PM 57.4 °F 52.7 °F 84% 29.89 in 10.0 mi ESE 3.5 mph - N/A   Clear
10:15 PM 57.2 °F 52.7 °F 85% 29.89 in 10.0 mi ESE 4.6 mph - N/A   Clear
10:35 PM 57.2 °F 52.5 °F 84% 29.89 in 10.0 mi East 3.5 mph - N/A   Clear
10:55 PM 57.2 °F 52.3 °F 84% 29.90 in 10.0 mi East 3.5 mph - N/A   Clear
11:15 PM 56.8 °F 52.2 °F 84% 29.91 in 10.0 mi East 3.5 mph - N/A   Clear
11:35 PM 55.9 °F 51.8 °F 86% 29.91 in 10.0 mi ESE 4.6 mph - N/A   Clear
11:55 PM 55.8 °F 51.8 °F 87% 29.91 in 10.0 mi ESE 4.6 mph - N/A   Clear